Main page
METAR-TAF:

METAR-TAF

Airports :

Koltsovo Airport

Yekaterinburg, Russia

latitude: 56-50N, longitude: 060-38E, elevation: 237 m

Current weather observation

The report was made 29 minutes ago, at 13:00 UTC
Wind 14 kt from the West
Temperature 5°C
Humidity 52%
Pressure 1021 hPa
Visibility 10 km or more
Broken clouds at a height of 4500 ft

METAR: USSS 201300Z 28007MPS 9999 BKN045 05/M04 Q1021 R26R/120050 NOSIG RMK QFE745/0993

Time: 18:29 (13:29 UTC)

Forecast

The report was made 2 hours and 38 minutes ago, at 10:51 UTC
Forecast valid from 20 at 12 UTC to 21 at 12 UTC
Wind 6 kt from the West/Northwest with gusts up to 25 kt
Visibility 10 km or more
Broken clouds at a height of 2000 ft
Becoming
from 20 at 14 UTC to 20 at 16 UTC
Wind 6 kt from the West with gusts up to 16 kt
Becoming
from 21 at 05 UTC to 21 at 07 UTC
Wind 6 kt from the West/Northwest with gusts up to 25 kt

TAF: USSS 201051Z 2012/2112 29003G13MPS 9999 BKN020 BECMG 2014/2016 28003G08MPS BECMG 2105/2107 30003G13MPS

Weather observations and forecasts of more than 4000 airports (METAR and TAF reports).

The available stations are represented by yellow and red dots on the map.

Hover mouse over dot to see the name of the station.

Then click to see weather observations and forecasts.

To change the map : click on the green buttons with a black cross to zoom in, on the green button with a dash to zoom out, or on the green arrows for adjacent maps.


METAR-TAF: